TimePDT,TemperatureF,Dew PointF,Humidity,Sea Level PressureIn,VisibilityMPH,Wind Direction,Wind SpeedMPH,Gust SpeedMPH,PrecipitationIn,Events,Conditions,WindDirDegrees,DateUTC
12:15 AM,37.4,6.8,28,30.26,10.0,West,8.1,-,N/A,,Clear,280,2012-10-05 07:15:00
12:35 AM,37.4,6.8,28,30.27,10.0,WNW,5.8,-,N/A,,Clear,290,2012-10-05 07:35:00
12:55 AM,37.4,6.8,28,30.27,10.0,West,6.9,-,N/A,,Clear,280,2012-10-05 07:55:00
1:15 AM,35.6,6.8,30,30.27,10.0,West,4.6,-,N/A,,Clear,260,2012-10-05 08:15:00
1:35 AM,32.0,6.8,35,30.27,10.0,West,4.6,-,N/A,,Clear,280,2012-10-05 08:35:00
1:55 AM,32.0,6.8,35,30.28,10.0,NW,5.8,-,N/A,,Clear,310,2012-10-05 08:55:00
2:15 AM,35.6,6.8,30,30.28,10.0,WNW,5.8,-,N/A,,Clear,300,2012-10-05 09:15:00
2:35 AM,33.8,6.8,32,30.28,10.0,WNW,4.6,-,N/A,,Clear,300,2012-10-05 09:35:00
2:55 AM,32.0,6.8,35,30.28,10.0,South,3.5,-,N/A,,Clear,170,2012-10-05 09:55:00
3:15 AM,30.2,8.6,40,30.28,10.0,South,3.5,-,N/A,,Clear,190,2012-10-05 10:15:00
3:35 AM,28.4,8.6,43,30.28,10.0,South,3.5,-,N/A,,Clear,190,2012-10-05 10:35:00
3:55 AM,24.8,6.8,46,30.27,10.0,South,5.8,-,N/A,,Clear,180,2012-10-05 10:55:00
4:15 AM,26.6,8.6,47,30.27,10.0,SSW,4.6,-,N/A,,Clear,210,2012-10-05 11:15:00
4:35 AM,26.6,8.6,47,30.27,10.0,SSW,3.5,-,N/A,,Clear,210,2012-10-05 11:35:00
4:55 AM,24.8,8.6,50,30.27,10.0,SSW,4.6,-,N/A,,Clear,200,2012-10-05 11:55:00
5:15 AM,26.6,8.6,47,30.27,10.0,SSW,4.6,-,N/A,,Clear,210,2012-10-05 12:15:00
5:35 AM,26.6,8.6,47,30.27,10.0,SSW,4.6,-,N/A,,Clear,210,2012-10-05 12:35:00
5:55 AM,26.6,8.6,47,30.26,10.0,Calm,Calm,-,N/A,,Clear,0,2012-10-05 12:55:00
6:15 AM,24.8,8.6,50,30.27,10.0,SSW,4.6,-,N/A,,Clear,200,2012-10-05 13:15:00
6:35 AM,-9999,-9999,N/A,30.27,10.0,SSW,4.6,-,N/A,,Clear,210,2012-10-05 13:35:00
6:55 AM,26.6,10.4,51,30.28,10.0,SSW,4.6,-,N/A,,Clear,200,2012-10-05 13:55:00
7:15 AM,24.8,8.6,50,30.28,10.0,SSW,5.8,-,N/A,,Clear,200,2012-10-05 14:15:00
7:55 AM,28.4,8.6,43,30.29,10.0,SSW,4.6,-,N/A,,Clear,200,2012-10-05 14:55:00
8:15 AM,32.0,10.4,41,30.29,10.0,Calm,Calm,-,N/A,,Clear,0,2012-10-05 15:15:00
8:35 AM,37.4,8.6,30,30.29,10.0,Calm,Calm,-,N/A,,Clear,0,2012-10-05 15:35:00
8:55 AM,35.6,10.4,35,30.29,10.0,ESE,3.5,-,N/A,,Clear,110,2012-10-05 15:55:00
9:15 AM,37.4,8.6,30,30.29,10.0,Calm,Calm,-,N/A,,Clear,0,2012-10-05 16:15:00
9:35 AM,39.2,8.6,28,30.29,10.0,Calm,Calm,-,N/A,,Clear,0,2012-10-05 16:35:00
9:55 AM,41.0,8.6,26,30.30,8.0,NNE,3.5,-,N/A,,Clear,30,2012-10-05 16:55:00
10:15 AM,42.8,8.6,25,30.30,10.0,North,4.6,-,N/A,,Clear,350,2012-10-05 17:15:00
10:35 AM,44.6,6.8,21,30.30,10.0,Calm,Calm,-,N/A,,Clear,0,2012-10-05 17:35:00
10:55 AM,46.4,6.8,20,30.30,10.0,NNE,3.5,-,N/A,,Clear,20,2012-10-05 17:55:00
11:15 AM,46.4,5.0,18,30.29,10.0,North,3.5,-,N/A,,Clear,360,2012-10-05 18:15:00
11:35 AM,48.2,3.2,16,30.29,10.0,Calm,Calm,-,N/A,,Clear,0,2012-10-05 18:35:00
12:15 PM,50.0,1.4,14,30.29,9.0,NNW,8.1,-,N/A,,Clear,340,2012-10-05 19:15:00
12:35 PM,50.0,-0.4,13,30.29,10.0,NNE,6.9,-,N/A,,Clear,20,2012-10-05 19:35:00
12:55 PM,51.8,-0.4,12,30.28,10.0,NNW,3.5,-,N/A,,Clear,340,2012-10-05 19:55:00
1:15 PM,53.6,-0.4,11,30.28,10.0,NW,3.5,-,N/A,,Clear,320,2012-10-05 20:15:00
1:35 PM,53.6,-0.4,11,30.27,10.0,NNW,3.5,-,N/A,,Clear,330,2012-10-05 20:35:00
2:15 PM,55.4,-2.2,9,30.25,10.0,NNE,8.1,-,N/A,,Clear,30,2012-10-05 21:15:00
2:35 PM,55.4,-0.4,10,30.25,10.0,NNW,4.6,-,N/A,,Clear,340,2012-10-05 21:35:00
2:55 PM,55.4,-0.4,10,30.24,10.0,ENE,5.8,-,N/A,,Clear,70,2012-10-05 21:55:00
3:15 PM,57.2,1.4,10,30.24,10.0,NNE,9.2,-,N/A,,Clear,30,2012-10-05 22:15:00
3:35 PM,57.2,1.4,10,30.23,10.0,North,6.9,-,N/A,,Clear,360,2012-10-05 22:35:00
3:55 PM,57.2,1.4,10,30.23,10.0,North,8.1,-,N/A,,Clear,10,2012-10-05 22:55:00
4:15 PM,57.2,1.4,10,30.22,10.0,NNW,5.8,-,N/A,,Clear,340,2012-10-05 23:15:00
4:35 PM,57.2,1.4,10,30.21,10.0,North,4.6,-,N/A,,Clear,10,2012-10-05 23:35:00
4:55 PM,57.2,-0.4,10,30.21,10.0,NNW,11.5,-,N/A,,Clear,330,2012-10-05 23:55:00
5:15 PM,57.2,-0.4,10,30.21,10.0,NNW,10.4,-,N/A,,Clear,330,2012-10-06 00:15:00
5:35 PM,57.2,-0.4,10,30.21,10.0,NNW,9.2,-,N/A,,Clear,340,2012-10-06 00:35:00
5:55 PM,55.4,-0.4,10,30.22,10.0,NNW,11.5,-,N/A,,Clear,340,2012-10-06 00:55:00
6:15 PM,53.6,-0.4,11,30.22,10.0,NNW,8.1,-,N/A,,Clear,340,2012-10-06 01:15:00
6:35 PM,53.6,-0.4,11,30.22,10.0,North,8.1,16.1,N/A,,Clear,350,2012-10-06 01:35:00
6:55 PM,50.0,-0.4,13,30.23,10.0,NNW,5.8,-,N/A,,Clear,340,2012-10-06 01:55:00
7:15 PM,48.2,1.4,15,30.23,10.0,NNW,5.8,-,N/A,,Clear,330,2012-10-06 02:15:00
7:35 PM,48.2,1.4,15,30.23,10.0,NW,6.9,-,N/A,,Clear,320,2012-10-06 02:35:00
7:55 PM,46.4,1.4,16,30.23,10.0,NNW,8.1,-,N/A,,Clear,330,2012-10-06 02:55:00
8:15 PM,46.4,1.4,16,30.23,10.0,NW,6.9,-,N/A,,Clear,320,2012-10-06 03:15:00
8:35 PM,44.6,1.4,17,30.24,10.0,WNW,5.8,-,N/A,,Clear,290,2012-10-06 03:35:00
9:15 PM,42.8,3.2,19,30.25,10.0,WNW,6.9,-,N/A,,Clear,300,2012-10-06 04:15:00
9:35 PM,41.0,3.2,21,30.26,10.0,WNW,8.1,-,N/A,,Clear,300,2012-10-06 04:35:00
9:55 PM,41.0,5.0,23,30.26,10.0,WNW,8.1,-,N/A,,Clear,300,2012-10-06 04:55:00
10:15 PM,41.0,5.0,23,30.26,10.0,WNW,6.9,-,N/A,,Clear,290,2012-10-06 05:15:00
10:35 PM,41.0,5.0,23,30.27,10.0,WNW,6.9,-,N/A,,Clear,300,2012-10-06 05:35:00
10:55 PM,41.0,5.0,23,30.27,10.0,WNW,6.9,-,N/A,,Clear,300,2012-10-06 05:55:00
11:15 PM,39.2,5.0,24,30.28,10.0,WNW,4.6,-,N/A,,Clear,290,2012-10-06 06:15:00
11:35 PM,37.4,5.0,26,30.28,10.0,WNW,3.5,-,N/A,,Clear,290,2012-10-06 06:35:00
11:55 PM,35.6,3.2,26,30.28,10.0,WNW,4.6,-,N/A,,Clear,290,2012-10-06 06:55:00